Time;durP1;ratioP1;P1;durP2;ratioP2;P2;SDS_P1;SDS_P2;PMS_P1;PMS_P2;Temp;Humidity;BMP_temperature;BMP_pressure;BME280_temperature;BME280_humidity;BME280_pressure;Samples;Min_cycle;Max_cycle;Signal;HPM_P1;HPM_P2
2021/09/12 00:00:44;;;;;;;13.45;8.95;;;18.60;99.90;;;;;;7403132;19;20018;-78
2021/09/12 00:03:13;;;;;;;13.15;8.60;;;18.60;99.90;;;;;;7405860;19;20347;-78
2021/09/12 00:05:44;;;;;;;14.35;9.63;;;18.50;99.90;;;;;;7406269;19;20017;-77
2021/09/12 00:08:13;;;;;;;13.85;8.88;;;18.50;99.90;;;;;;7403126;19;20015;-79
2021/09/12 00:10:43;;;;;;;15.40;8.80;;;18.50;99.90;;;;;;7403269;19;20029;-79
2021/09/12 00:13:15;;;;;;;14.38;9.68;;;18.50;99.90;;;;;;7406163;19;20021;-79
2021/09/12 00:15:46;;;;;;;13.10;9.52;;;18.50;99.90;;;;;;7415661;19;20006;-79
2021/09/12 00:18:18;;;;;;;11.90;9.20;;;18.50;99.90;;;;;;7423248;19;20050;-79
2021/09/12 00:20:50;;;;;;;13.50;8.65;;;18.40;99.90;;;;;;7418578;19;20015;-80
2021/09/12 00:23:22;;;;;;;15.63;9.57;;;18.40;99.90;;;;;;7411762;19;20021;-82
2021/09/12 00:25:51;;;;;;;14.77;9.35;;;18.50;99.90;;;;;;7411855;19;20046;-81
2021/09/12 00:28:23;;;;;;;12.13;8.75;;;18.50;99.90;;;;;;7411594;19;20016;-80
2021/09/12 00:30:55;;;;;;;11.85;8.48;;;18.50;99.90;;;;;;7413210;19;20055;-79
2021/09/12 00:33:27;;;;;;;18.25;11.38;;;18.50;99.90;;;;;;7407080;19;20026;-81
2021/09/12 00:35:58;;;;;;;14.30;8.90;;;18.40;99.90;;;;;;7405583;19;20014;-81
2021/09/12 00:38:28;;;;;;;12.20;8.77;;;18.20;99.90;;;;;;7402918;19;20010;-80
2021/09/12 00:40:59;;;;;;;12.52;9.00;;;18.30;99.90;;;;;;7401491;19;20321;-80
2021/09/12 00:43:31;;;;;;;16.27;8.82;;;18.40;99.90;;;;;;7403080;19;20007;-80
2021/09/12 00:46:06;;;;;;;16.42;9.45;;;18.30;99.90;;;;;;7399214;19;19999;-79
2021/09/12 00:48:40;;;;;;;15.30;9.10;;;18.20;99.90;;;;;;7402555;19;20096;-80
2021/09/12 00:51:09;;;;;;;15.70;8.55;;;18.20;99.90;;;;;;7403097;19;20029;-79
2021/09/12 00:53:42;;;;;;;14.95;8.52;;;18.20;99.90;;;;;;7398828;19;20028;-80
2021/09/12 00:56:15;;;;;;;15.40;8.82;;;18.30;99.90;;;;;;7397788;19;20024;-78
2021/09/12 00:58:50;;;;;;;15.93;9.45;;;18.30;99.90;;;;;;7397874;19;20024;-80
2021/09/12 01:01:20;;;;;;;15.68;9.27;;;18.30;99.90;;;;;;7401570;19;20014;-80
2021/09/12 01:03:51;;;;;;;12.65;8.35;;;18.30;99.90;;;;;;7402598;19;20014;-78
2021/09/12 01:06:24;;;;;;;14.10;8.77;;;18.30;99.90;;;;;;7400214;19;20014;-78
2021/09/12 01:08:53;;;;;;;13.57;8.95;;;18.30;99.90;;;;;;7402401;19;20011;-79
2021/09/12 01:11:22;;;;;;;17.33;9.60;;;18.20;99.90;;;;;;7402715;19;20011;-80
2021/09/12 01:13:57;;;;;;;12.82;9.23;;;18.20;99.90;;;;;;7404845;19;20420;-80
2021/09/12 01:16:30;;;;;;;13.32;8.20;;;18.00;99.90;;;;;;7399464;19;20105;-80
2021/09/12 01:18:59;;;;;;;17.83;10.45;;;17.80;99.90;;;;;;7400280;19;20014;-80
2021/09/12 01:21:33;;;;;;;13.00;8.82;;;17.80;99.90;;;;;;7402265;19;20014;-80
2021/09/12 01:24:03;;;;;;;18.15;8.90;;;17.70;99.90;;;;;;7398884;19;20003;-79
2021/09/12 01:26:35;;;;;;;17.50;8.55;;;17.70;99.90;;;;;;7399501;19;20011;-79
2021/09/12 01:29:04;;;;;;;14.27;8.90;;;17.80;99.90;;;;;;7402028;19;20051;-78
2021/09/12 01:31:36;;;;;;;14.02;8.63;;;17.70;99.90;;;;;;7400487;19;20050;-78
2021/09/12 01:34:05;;;;;;;14.60;8.50;;;17.70;99.90;;;;;;7397096;19;20459;-78
2021/09/12 01:36:34;;;;;;;13.57;8.73;;;17.60;99.90;;;;;;7400747;19;20424;-79
2021/09/12 01:39:04;;;;;;;13.68;8.93;;;17.50;99.90;;;;;;7399125;19;20014;-79
2021/09/12 01:41:37;;;;;;;12.50;8.48;;;17.50;99.90;;;;;;7402041;19;20018;-78
2021/09/12 01:44:08;;;;;;;13.02;9.07;;;17.40;99.90;;;;;;7396032;19;20014;-80
2021/09/12 01:46:46;;;;;;;11.82;9.07;;;17.60;99.90;;;;;;7400658;19;20024;-79
2021/09/12 01:49:17;;;;;;;13.80;9.02;;;17.80;99.90;;;;;;7401009;19;20417;-79
2021/09/12 01:51:46;;;;;;;13.85;8.77;;;17.90;99.90;;;;;;7400678;19;20021;-80
2021/09/12 01:54:18;;;;;;;12.60;8.82;;;17.80;99.90;;;;;;7396755;19;20015;-80
2021/09/12 01:56:52;;;;;;;16.08;9.15;;;17.60;99.90;;;;;;7396655;19;20011;-78
2021/09/12 01:59:26;;;;;;;14.57;10.18;;;17.50;99.90;;;;;;7399833;19;20006;-80
2021/09/12 02:01:55;;;;;;;13.35;9.68;;;17.70;99.90;;;;;;7403505;19;20007;-78
2021/09/12 02:04:24;;;;;;;16.70;9.95;;;17.80;99.90;;;;;;7398375;19;20014;-80
2021/09/12 02:06:55;;;;;;;13.85;9.95;;;17.70;99.90;;;;;;7407441;19;20427;-79
2021/09/12 02:09:31;;;;;;;16.15;10.25;;;17.90;99.90;;;;;;7412726;19;20015;-77
2021/09/12 02:12:05;;;;;;;17.55;11.55;;;17.80;99.90;;;;;;7410117;19;20424;-79
2021/09/12 02:14:38;;;;;;;16.48;10.98;;;17.80;99.90;;;;;;7406644;19;20006;-79
2021/09/12 02:17:08;;;;;;;19.77;11.15;;;17.70;99.90;;;;;;7408922;19;20030;-80
2021/09/12 02:19:37;;;;;;;15.73;10.75;;;17.70;99.90;;;;;;7407993;19;20018;-80
2021/09/12 02:22:07;;;;;;;15.65;10.68;;;17.50;99.90;;;;;;7405170;19;20356;-81
2021/09/12 02:24:39;;;;;;;16.60;11.27;;;17.60;99.90;;;;;;7407062;19;20006;-80
2021/09/12 02:27:11;;;;;;;23.25;10.63;;;17.60;99.90;;;;;;7408248;19;20047;-82
2021/09/12 02:29:40;;;;;;;16.13;11.02;;;17.60;99.90;;;;;;7409943;19;20015;-81
2021/09/12 02:32:10;;;;;;;19.35;11.38;;;17.50;99.90;;;;;;7404547;19;20018;-82
2021/09/12 02:34:42;;;;;;;16.55;11.15;;;17.60;99.90;;;;;;7405870;19;20022;-81
2021/09/12 02:37:13;;;;;;;15.98;10.00;;;17.70;99.90;;;;;;7411025;19;20014;-83
2021/09/12 02:39:50;;;;;;;16.10;10.77;;;17.80;99.90;;;;;;7408749;19;20025;-82
2021/09/12 02:42:22;;;;;;;17.13;10.70;;;17.80;99.90;;;;;;7411152;19;20018;-84
2021/09/12 02:44:54;;;;;;;15.18;9.88;;;17.80;99.90;;;;;;7415234;19;20002;-80
2021/09/12 02:47:27;;;;;;;17.08;10.68;;;17.80;99.90;;;;;;7421277;19;20022;-81
2021/09/12 02:50:01;;;;;;;17.63;9.85;;;17.90;99.90;;;;;;7415798;19;20002;-80
2021/09/12 02:52:35;;;;;;;17.40;10.63;;;17.90;99.90;;;;;;7405739;19;20007;-80
2021/09/12 02:55:05;;;;;;;13.35;9.52;;;17.90;99.90;;;;;;7401040;19;20021;-78
2021/09/12 02:57:38;;;;;;;14.00;9.88;;;17.90;99.90;;;;;;7406313;19;20018;-80
2021/09/12 03:00:09;;;;;;;14.23;10.25;;;17.90;99.90;;;;;;7403683;19;20010;-80
2021/09/12 03:02:39;;;;;;;16.35;10.27;;;18.00;99.90;;;;;;7404645;19;20018;-80
2021/09/12 03:05:10;;;;;;;14.68;10.68;;;18.00;99.90;;;;;;7405329;19;20032;-79
2021/09/12 03:07:41;;;;;;;14.57;9.77;;;18.10;99.90;;;;;;7407774;19;20086;-80
2021/09/12 03:10:13;;;;;;;15.80;10.32;;;18.10;99.90;;;;;;7411196;19;20022;-80
2021/09/12 03:12:45;;;;;;;16.05;9.85;;;18.10;99.90;;;;;;7414507;19;20019;-78
2021/09/12 03:15:14;;;;;;;13.10;9.57;;;18.00;99.90;;;;;;7413084;19;20046;-77
2021/09/12 03:17:44;;;;;;;15.55;9.60;;;18.00;99.90;;;;;;7408117;19;20014;-81
2021/09/12 03:20:17;;;;;;;18.92;10.68;;;17.90;99.90;;;;;;7410874;19;20015;-81
2021/09/12 03:22:50;;;;;;;18.00;10.68;;;17.90;99.90;;;;;;7414595;19;20007;-82
2021/09/12 03:25:20;;;;;;;16.63;10.18;;;18.00;99.90;;;;;;7413667;19;20011;-83
2021/09/12 03:27:54;;;;;;;15.18;10.02;;;18.00;99.90;;;;;;7416082;19;20432;-80
2021/09/12 03:30:23;;;;;;;15.60;9.98;;;18.00;99.90;;;;;;7407912;19;20022;-80
2021/09/12 03:32:53;;;;;;;17.83;11.10;;;17.90;99.90;;;;;;7409907;19;20487;-80
2021/09/12 03:35:25;;;;;;;18.50;10.43;;;17.90;99.90;;;;;;7407986;19;20091;-81
2021/09/12 03:37:56;;;;;;;15.93;10.20;;;17.90;99.90;;;;;;7410484;19;20021;-82
2021/09/12 03:40:26;;;;;;;13.95;9.65;;;17.70;99.90;;;;;;7402330;19;20014;-81
2021/09/12 03:43:01;;;;;;;12.73;9.63;;;17.60;99.90;;;;;;7403354;19;20290;-80
2021/09/12 03:45:30;;;;;;;14.68;9.43;;;17.60;99.90;;;;;;7404937;19;20018;-82
2021/09/12 03:48:02;;;;;;;14.65;10.43;;;17.60;99.90;;;;;;7401668;19;20003;-79
2021/09/12 03:50:33;;;;;;;16.60;9.93;;;17.70;99.90;;;;;;7403032;19;20023;-80
2021/09/12 03:53:04;;;;;;;15.98;10.82;;;17.90;99.90;;;;;;7408237;19;20374;-80
2021/09/12 03:55:35;;;;;;;16.88;9.80;;;18.00;99.90;;;;;;7413248;19;20026;-78
2021/09/12 03:58:10;;;;;;;16.77;10.85;;;17.90;99.90;;;;;;7409415;19;20030;-78
2021/09/12 04:00:45;;;;;;;15.00;11.30;;;17.90;99.90;;;;;;7409207;19;20025;-78
2021/09/12 04:03:16;;;;;;;17.08;10.77;;;17.90;99.90;;;;;;7417128;19;20018;-81
2021/09/12 04:05:47;;;;;;;17.48;9.93;;;17.80;99.90;;;;;;7413186;19;20400;-79
2021/09/12 04:08:20;;;;;;;15.60;10.38;;;17.80;99.90;;;;;;7406145;19;20006;-81
2021/09/12 04:10:50;;;;;;;13.77;10.52;;;17.80;99.90;;;;;;7402542;19;20325;-81
2021/09/12 04:13:22;;;;;;;17.55;11.13;;;17.80;99.90;;;;;;7402703;19;20025;-80
2021/09/12 04:15:53;;;;;;;14.27;10.20;;;17.90;99.90;;;;;;7402998;19;20014;-80
2021/09/12 04:18:25;;;;;;;21.90;11.35;;;17.90;99.90;;;;;;7404878;19;20519;-77
2021/09/12 04:20:55;;;;;;;15.35;11.73;;;17.90;99.90;;;;;;7404293;19;20029;-78
2021/09/12 04:23:25;;;;;;;16.23;10.48;;;17.90;99.90;;;;;;7406459;19;20025;-79
2021/09/12 04:26:03;;;;;;;15.25;10.15;;;17.90;99.90;;;;;;7413830;19;20010;-79
2021/09/12 04:28:35;;;;;;;17.20;10.82;;;17.80;99.90;;;;;;7413494;19;20034;-78
2021/09/12 04:31:04;;;;;;;16.05;11.48;;;17.80;99.90;;;;;;7416494;19;20479;-78
2021/09/12 04:33:34;;;;;;;18.70;11.07;;;17.70;99.90;;;;;;7410814;19;20022;-79
2021/09/12 04:36:03;;;;;;;20.45;10.55;;;17.70;99.90;;;;;;7410536;19;20074;-79
2021/09/12 04:38:33;;;;;;;17.30;10.85;;;17.60;99.90;;;;;;7410073;19;20010;-78
2021/09/12 04:41:07;;;;;;;17.98;11.65;;;17.60;99.90;;;;;;7409365;19;20010;-78
2021/09/12 04:43:39;;;;;;;17.20;10.98;;;17.50;99.90;;;;;;7408588;19;20440;-78
2021/09/12 04:46:11;;;;;;;15.52;11.20;;;17.40;99.90;;;;;;7404500;19;20007;-78
2021/09/12 04:48:40;;;;;;;17.80;10.52;;;17.40;99.90;;;;;;7404414;19;20383;-77
2021/09/12 04:51:12;;;;;;;14.18;11.02;;;17.40;99.90;;;;;;7403964;19;20010;-78
2021/09/12 04:53:43;;;;;;;17.20;11.35;;;17.40;99.90;;;;;;7405698;19;20022;-79
2021/09/12 04:56:13;;;;;;;20.88;12.95;;;17.40;99.90;;;;;;7403187;19;20017;-78
2021/09/12 04:58:47;;;;;;;26.10;12.23;;;17.40;99.90;;;;;;7403978;19;20011;-78
2021/09/12 05:01:16;;;;;;;19.40;12.40;;;17.40;99.90;;;;;;7405801;19;20013;-78
2021/09/12 05:03:49;;;;;;;17.35;11.15;;;17.40;99.90;;;;;;7406054;19;20068;-78
2021/09/12 05:06:19;;;;;;;15.85;11.27;;;17.40;99.90;;;;;;7404495;19;20318;-78
2021/09/12 05:08:48;;;;;;;19.20;12.10;;;17.40;99.90;;;;;;7407859;19;20444;-79
2021/09/12 05:11:20;;;;;;;20.50;11.88;;;17.30;99.90;;;;;;7405821;19;20086;-78
2021/09/12 05:13:52;;;;;;;16.50;11.40;;;17.30;99.90;;;;;;7405776;19;20018;-79
2021/09/12 05:16:23;;;;;;;20.38;11.88;;;17.40;99.90;;;;;;7400950;19;20010;-79
2021/09/12 05:18:53;;;;;;;17.80;11.73;;;17.30;99.90;;;;;;7403463;19;20316;-77
2021/09/12 05:21:26;;;;;;;17.70;11.45;;;17.30;99.90;;;;;;7406063;19;20010;-78
2021/09/12 05:23:55;;;;;;;20.10;11.95;;;17.30;99.90;;;;;;7405168;19;20014;-78
2021/09/12 05:26:25;;;;;;;18.60;12.27;;;17.30;99.90;;;;;;7403477;19;20011;-78
2021/09/12 05:28:57;;;;;;;16.67;11.52;;;17.30;99.90;;;;;;7403268;19;20017;-80
2021/09/12 05:31:26;;;;;;;17.13;10.73;;;17.30;99.90;;;;;;7405363;19;20021;-78
2021/09/12 05:33:57;;;;;;;16.75;11.30;;;17.40;99.90;;;;;;7404243;19;20278;-78
2021/09/12 05:36:28;;;;;;;17.73;12.13;;;17.30;99.90;;;;;;7399819;19;20014;-79
2021/09/12 05:39:00;;;;;;;18.08;12.38;;;17.40;99.90;;;;;;7401408;19;20022;-77
2021/09/12 05:41:31;;;;;;;18.85;11.73;;;17.40;99.90;;;;;;7401261;19;20413;-78
2021/09/12 05:44:05;;;;;;;16.98;11.75;;;17.40;99.90;;;;;;7398852;19;20026;-80
2021/09/12 05:46:37;;;;;;;16.15;12.38;;;17.30;99.90;;;;;;7398602;19;20010;-78
2021/09/12 05:49:10;;;;;;;17.30;11.45;;;17.30;99.90;;;;;;7400699;19;20014;-78
2021/09/12 05:51:44;;;;;;;16.13;11.43;;;17.40;99.90;;;;;;7406005;19;20025;-79
2021/09/12 05:54:15;;;;;;;17.65;11.70;;;17.50;99.90;;;;;;7403875;19;20003;-78
2021/09/12 05:56:48;;;;;;;14.88;10.73;;;17.50;99.90;;;;;;7403762;19;20003;-79
2021/09/12 05:59:21;;;;;;;17.30;12.32;;;17.50;99.90;;;;;;7406857;19;20014;-78
2021/09/12 06:01:51;;;;;;;20.20;11.85;;;17.60;99.90;;;;;;7409093;19;20042;-78
2021/09/12 06:04:20;;;;;;;17.80;11.70;;;17.50;99.90;;;;;;7407741;19;20054;-79
2021/09/12 06:06:50;;;;;;;15.98;11.82;;;17.60;99.90;;;;;;7410760;19;20047;-79
2021/09/12 06:09:22;;;;;;;20.55;12.45;;;17.60;99.90;;;;;;7412568;19;20010;-80
2021/09/12 06:11:52;;;;;;;18.88;11.82;;;17.60;99.90;;;;;;7417132;19;20013;-79
2021/09/12 06:14:24;;;;;;;17.17;11.65;;;17.60;99.90;;;;;;7411996;19;20028;-79
2021/09/12 06:16:53;;;;;;;18.50;12.00;;;17.60;99.90;;;;;;7408972;19;20324;-78
2021/09/12 06:19:22;;;;;;;20.00;12.02;;;17.60;99.90;;;;;;7411734;19;20017;-80
2021/09/12 06:21:52;;;;;;;15.20;11.02;;;17.60;99.90;;;;;;7410934;19;20034;-80
2021/09/12 06:24:21;;;;;;;17.58;11.43;;;17.60;99.90;;;;;;7409696;19;20017;-80
2021/09/12 06:26:53;;;;;;;18.08;11.63;;;17.60;99.90;;;;;;7403748;19;20026;-80
2021/09/12 06:29:25;;;;;;;16.83;11.25;;;17.60;99.90;;;;;;7400601;19;20019;-82
2021/09/12 06:31:55;;;;;;;16.70;11.65;;;17.60;99.90;;;;;;7401538;19;20014;-80
2021/09/12 06:34:25;;;;;;;14.98;11.45;;;17.60;99.90;;;;;;7400552;19;20031;-79
2021/09/12 06:36:56;;;;;;;19.33;11.40;;;17.70;99.90;;;;;;7404254;19;20294;-80
2021/09/12 06:39:25;;;;;;;15.27;11.85;;;17.70;99.90;;;;;;7400831;19;20006;-81
2021/09/12 06:41:55;;;;;;;17.52;11.57;;;17.70;99.90;;;;;;7402238;19;20007;-81
2021/09/12 06:44:29;;;;;;;16.88;11.13;;;17.90;99.90;;;;;;7398935;19;20003;-79
2021/09/12 06:47:00;;;;;;;17.50;11.65;;;17.90;99.90;;;;;;7415949;19;20018;-79
2021/09/12 06:49:32;;;;;;;18.05;12.40;;;17.90;99.90;;;;;;7417743;19;20031;-79
2021/09/12 06:52:02;;;;;;;17.13;12.40;;;17.90;99.90;;;;;;7415647;19;20017;-79
2021/09/12 06:54:36;;;;;;;15.40;11.75;;;18.00;99.90;;;;;;7422703;19;20018;-79
2021/09/12 06:57:06;;;;;;;16.30;11.93;;;18.10;99.90;;;;;;7421103;19;20015;-79
2021/09/12 06:59:38;;;;;;;15.60;11.48;;;18.20;99.90;;;;;;7413118;19;20018;-78
2021/09/12 07:02:10;;;;;;;19.90;11.90;;;18.30;99.90;;;;;;7411257;19;20420;-77
2021/09/12 07:04:39;;;;;;;16.15;11.68;;;18.30;99.90;;;;;;7420005;19;20038;-79
2021/09/12 07:07:09;;;;;;;15.52;10.63;;;18.40;99.90;;;;;;7416160;19;20082;-78
2021/09/12 07:09:38;;;;;;;16.13;10.80;;;18.40;99.90;;;;;;7414468;19;20020;-80
2021/09/12 07:12:09;;;;;;;14.88;10.30;;;18.60;99.90;;;;;;7406488;19;20018;-82
2021/09/12 07:14:43;;;;;;;16.13;11.40;;;18.70;99.90;;;;;;7408334;19;20019;-82
2021/09/12 07:17:13;;;;;;;15.15;9.63;;;18.90;99.90;;;;;;7407671;19;20007;-80
2021/09/12 07:19:45;;;;;;;14.15;10.68;;;19.00;99.90;;;;;;7406757;19;20073;-79
2021/09/12 07:22:19;;;;;;;15.93;10.93;;;19.10;99.90;;;;;;7404119;19;20257;-81
2021/09/12 07:24:48;;;;;;;17.42;11.20;;;19.30;99.90;;;;;;7408407;19;20051;-81
2021/09/12 07:27:18;;;;;;;16.25;11.05;;;19.30;99.90;;;;;;7413827;19;20014;-79
2021/09/12 07:29:52;;;;;;;13.70;10.13;;;19.20;99.90;;;;;;7415568;19;20014;-80
2021/09/12 07:32:21;;;;;;;17.00;10.10;;;19.20;99.90;;;;;;7412020;19;20463;-82
2021/09/12 07:34:53;;;;;;;16.60;9.65;;;19.30;99.90;;;;;;7404952;19;20007;-78
2021/09/12 07:37:23;;;;;;;18.73;10.02;;;19.50;99.90;;;;;;7405239;19;20022;-79
2021/09/12 07:39:55;;;;;;;14.77;9.63;;;19.60;99.90;;;;;;7410282;19;20021;-79
2021/09/12 07:42:28;;;;;;;13.48;8.68;;;19.60;99.90;;;;;;7408290;19;20010;-82
2021/09/12 07:45:00;;;;;;;11.95;9.02;;;19.70;99.90;;;;;;7405266;19;20451;-81
2021/09/12 07:47:33;;;;;;;12.52;8.88;;;19.90;99.90;;;;;;7407188;19;20317;-82
2021/09/12 07:50:02;;;;;;;14.15;8.57;;;20.00;99.90;;;;;;7405152;19;20010;-81
2021/09/12 07:52:32;;;;;;;15.95;8.80;;;20.10;99.90;;;;;;7407186;19;20356;-82
2021/09/12 07:55:04;;;;;;;13.05;8.38;;;20.20;99.90;;;;;;7406961;19;20021;-80
2021/09/12 07:57:33;;;;;;;15.40;8.60;;;20.40;99.90;;;;;;7407901;19;20110;-81
2021/09/12 08:00:10;;;;;;;13.68;8.73;;;20.50;99.90;;;;;;7406520;19;20018;-83
2021/09/12 08:02:42;;;;;;;15.68;8.30;;;20.40;99.90;;;;;;7405536;19;20494;-82
2021/09/12 08:05:14;;;;;;;13.32;8.38;;;20.50;99.90;;;;;;7409429;19;20042;-80
2021/09/12 08:07:43;;;;;;;12.57;7.70;;;20.60;99.90;;;;;;7411785;19;20025;-79
2021/09/12 08:10:15;;;;;;;12.05;8.68;;;20.70;99.90;;;;;;7407073;19;20365;-80
2021/09/12 08:12:45;;;;;;;13.32;8.65;;;20.70;99.90;;;;;;7414226;19;20018;-81
2021/09/12 08:15:22;;;;;;;11.65;8.80;;;20.80;99.90;;;;;;7411341;19;20006;-80
2021/09/12 08:17:51;;;;;;;9.52;7.72;;;20.90;99.90;;;;;;7404773;19;20119;-80
2021/09/12 08:20:23;;;;;;;12.65;9.15;;;21.00;99.90;;;;;;7405962;19;20087;-79
2021/09/12 08:22:54;;;;;;;12.05;7.88;;;21.00;99.90;;;;;;7405668;19;20356;-80
2021/09/12 08:25:24;;;;;;;9.57;7.15;;;21.20;99.90;;;;;;7405730;19;20018;-80
2021/09/12 08:27:53;;;;;;;13.23;8.68;;;21.20;99.90;;;;;;7406801;19;20325;-81
2021/09/12 08:30:26;;;;;;;13.15;7.70;;;21.40;99.90;;;;;;7400046;19;20010;-79
2021/09/12 08:32:55;;;;;;;11.95;7.97;;;21.40;99.90;;;;;;7405305;19;20015;-81
2021/09/12 08:35:27;;;;;;;11.20;7.40;;;21.40;99.90;;;;;;7404811;19;20021;-81
2021/09/12 08:37:56;;;;;;;11.75;7.32;;;21.70;99.90;;;;;;7406365;19;20008;-80
2021/09/12 08:40:30;;;;;;;12.35;6.88;;;21.90;99.90;;;;;;7402721;19;20021;-80
2021/09/12 08:43:02;;;;;;;14.85;9.13;;;22.20;99.70;;;;;;7403050;19;20018;-79
2021/09/12 08:45:34;;;;;;;9.57;7.47;;;22.50;98.70;;;;;;7403648;19;20325;-80
2021/09/12 08:48:04;;;;;;;9.75;7.30;;;22.70;98.20;;;;;;7401421;19;20013;-79
2021/09/12 08:50:36;;;;;;;14.82;7.72;;;22.80;97.70;;;;;;7402290;19;20021;-79
2021/09/12 08:53:07;;;;;;;14.43;8.40;;;22.80;97.30;;;;;;7407103;19;20042;-81
2021/09/12 08:55:37;;;;;;;12.35;8.70;;;22.40;97.80;;;;;;7402846;19;20007;-79
2021/09/12 08:58:07;;;;;;;12.85;8.93;;;22.10;98.50;;;;;;7398608;19;20002;-82
2021/09/12 09:00:45;;;;;;;14.32;10.18;;;21.80;99.10;;;;;;7400596;19;20011;-80
2021/09/12 09:03:14;;;;;;;17.00;11.90;;;21.50;99.90;;;;;;7401911;19;20011;-83
2021/09/12 09:05:47;;;;;;;14.93;9.77;;;21.40;99.90;;;;;;7402437;19;20011;-81
2021/09/12 09:08:20;;;;;;;13.95;10.70;;;21.50;99.90;;;;;;7402122;19;20019;-80
2021/09/12 09:10:51;;;;;;;14.98;9.63;;;21.60;99.90;;;;;;7400659;19;20021;-81
2021/09/12 09:13:29;;;;;;;16.27;10.98;;;21.60;99.90;;;;;;7401726;19;20156;-79
2021/09/12 09:16:03;;;;;;;14.13;10.90;;;21.50;99.90;;;;;;7402520;19;20014;-79
2021/09/12 09:18:35;;;;;;;14.45;11.52;;;21.30;99.90;;;;;;7400738;19;20025;-81
2021/09/12 09:21:25;;;;;;;16.35;12.50;;;21.20;99.90;;;;;;7400885;19;20018;-80
2021/09/12 09:24:21;;;;;;;13.45;9.52;;;21.20;99.90;;;;;;7406579;19;20038;-89
2021/09/12 09:26:54;;;;;;;14.52;9.93;;;21.10;99.90;;;;;;7407761;19;20318;-89
2021/09/12 09:29:27;;;;;;;13.68;10.70;;;21.10;99.90;;;;;;7404487;19;20010;-90
2021/09/12 09:32:17;;;;;;;15.82;10.52;;;21.00;99.90;;;;;;7415142;19;20341;-90
2021/09/12 09:34:47;;;;;;;12.52;9.05;;;21.10;99.90;;;;;;7407575;19;20016;-91
2021/09/12 09:37:18;;;;;;;13.73;9.15;;;21.20;99.40;;;;;;7405305;19;20051;-91
2021/09/12 09:39:50;;;;;;;11.18;7.53;;;21.40;99.90;;;;;;7404780;19;20432;-89
2021/09/12 09:42:36;;;;;;;13.63;6.65;;;21.40;99.00;;;;;;7406118;19;20030;-90
2021/09/12 09:45:11;;;;;;;11.13;5.70;;;21.50;97.60;;;;;;7406274;19;20014;-89
2021/09/12 09:47:44;;;;;;;10.93;6.15;;;21.50;97.30;;;;;;7405250;19;20070;-92
2021/09/12 09:50:17;;;;;;;8.27;5.72;;;21.70;96.50;;;;;;7406282;19;20090;-90
2021/09/12 09:52:48;;;;;;;11.77;5.68;;;21.40;97.00;;;;;;7406970;19;20448;-87
2021/09/12 09:55:19;;;;;;;12.57;6.63;;;21.50;97.40;;;;;;7408381;19;20437;-89
2021/09/12 09:57:50;;;;;;;16.23;7.32;;;21.60;97.00;;;;;;7402841;19;20002;-90
2021/09/12 10:00:22;;;;;;;8.13;6.07;;;21.60;96.80;;;;;;7404144;19;20011;-89
2021/09/12 10:02:57;;;;;;;8.02;5.57;;;21.70;96.70;;;;;;7403491;19;20036;-91
2021/09/12 10:05:30;;;;;;;5.78;4.07;;;21.70;95.10;;;;;;7406470;19;20014;-90
2021/09/12 10:08:03;;;;;;;6.15;3.88;;;21.80;95.10;;;;;;7412834;19;20316;-89
2021/09/12 10:10:33;;;;;;;6.97;3.58;;;22.20;94.20;;;;;;7416944;19;20017;-90
2021/09/12 10:13:05;;;;;;;6.55;3.42;;;22.80;93.00;;;;;;7416606;19;20018;-91
2021/09/12 10:15:40;;;;;;;9.20;4.13;;;23.10;92.60;;;;;;7418332;19;20007;-89
2021/09/12 10:18:13;;;;;;;5.53;3.55;;;23.40;91.80;;;;;;7406016;19;20044;-91
2021/09/12 10:20:43;;;;;;;10.57;4.63;;;23.80;91.40;;;;;;7404900;19;20014;-92
2021/09/12 10:23:15;;;;;;;8.00;4.10;;;23.90;90.80;;;;;;7403788;19;20011;-92
2021/09/12 10:26:01;;;;;;;7.20;4.07;;;24.20;90.50;;;;;;7404146;19;20082;-91
2021/09/12 10:28:33;;;;;;;9.40;3.40;;;25.10;88.30;;;;;;7411989;19;20025;-91
2021/09/12 10:31:34;;;;;;;5.18;3.33;;;25.20;85.70;;;;;;7413188;19;20014;-91
2021/09/12 10:34:10;;;;;;;;;;;25.40;83.00;;;;;;7411732;19;20015;-90
2021/09/12 10:36:43;;;;;;;5.50;3.55;;;24.30;83.60;;;;;;7414465;19;19918;-89
2021/09/12 10:39:31;;;;;;;6.45;3.58;;;23.80;86.60;;;;;;7428420;19;20006;-89
2021/09/12 10:42:20;;;;;;;5.50;3.58;;;23.80;87.20;;;;;;7425383;19;20014;-90
2021/09/12 10:45:24;;;;;;;6.07;4.00;;;23.90;87.30;;;;;;7427692;19;20017;-88
2021/09/12 10:48:15;;;;;;;4.78;3.53;;;23.90;87.00;;;;;;7420919;19;20011;-90
2021/09/12 10:50:50;;;;;;;5.88;3.72;;;23.20;88.40;;;;;;7420437;19;20083;-90
2021/09/12 10:53:19;;;;;;;7.03;3.85;;;22.90;90.30;;;;;;7424437;19;20007;-89
2021/09/12 10:56:03;;;;;;;5.65;3.38;;;22.90;90.40;;;;;;7425964;19;20078;-90
2021/09/12 10:58:34;;;;;;;6.30;3.55;;;23.00;90.40;;;;;;7418961;19;20029;-90
2021/09/12 11:01:07;;;;;;;8.20;3.20;;;23.30;90.00;;;;;;7422708;19;20010;-90
2021/09/12 11:03:37;;;;;;;5.68;4.22;;;23.50;89.90;;;;;;7421754;19;20031;-90
2021/09/12 11:06:16;;;;;;;7.18;3.78;;;24.20;88.60;;;;;;7416128;19;20007;-91
2021/09/12 11:08:46;;;;;;;4.38;2.75;;;25.50;85.50;;;;;;7413934;19;20010;-92
2021/09/12 11:11:21;;;;;;;6.15;3.00;;;26.90;82.00;;;;;;7413515;19;20021;-91
2021/09/12 11:13:52;;;;;;;5.18;2.90;;;28.10;76.60;;;;;;7413886;19;20011;-93
2021/09/12 11:16:23;;;;;;;6.10;3.58;;;28.20;74.40;;;;;;7412675;19;20317;-92
2021/09/12 11:18:55;;;;;;;5.38;3.30;;;27.00;75.30;;;;;;7409526;19;20094;-90
2021/09/12 11:21:34;;;;;;;6.38;3.40;;;26.10;79.20;;;;;;7411502;19;20090;-91
2021/09/12 11:24:08;;;;;;;7.22;3.60;;;24.60;82.20;;;;;;7411988;19;20014;-91
2021/09/12 11:26:43;;;;;;;5.32;3.42;;;25.20;83.00;;;;;;7412536;19;20022;-90
2021/09/12 11:29:15;;;;;;;5.18;3.08;;;25.90;79.10;;;;;;7412007;19;20010;-91
2021/09/12 11:31:46;;;;;;;6.80;3.40;;;25.70;78.90;;;;;;7412933;19;20018;-92
2021/09/12 11:34:17;;;;;;;5.38;3.25;;;25.60;79.60;;;;;;7410197;19;20014;-92
2021/09/12 11:36:54;;;;;;;4.70;3.20;;;25.40;79.60;;;;;;7409338;19;20009;-91
2021/09/12 11:39:27;;;;;;;3.72;2.60;;;25.50;79.60;;;;;;7410957;19;20078;-92
2021/09/12 11:41:58;;;;;;;4.38;2.67;;;26.30;77.60;;;;;;7409088;19;20435;-91
2021/09/12 11:44:34;;;;;;;5.07;2.80;;;27.30;74.60;;;;;;7407030;19;20022;-92
2021/09/12 11:47:04;;;;;;;4.13;2.38;;;27.20;73.70;;;;;;7410972;19;20032;-93
2021/09/12 11:49:36;;;;;;;5.07;2.35;;;27.00;74.30;;;;;;7411667;19;20014;-90
2021/09/12 11:52:09;;;;;;;2.80;1.60;;;26.80;74.30;;;;;;7409303;19;20014;-92
2021/09/12 11:54:41;;;;;;;3.85;1.73;;;26.90;73.10;;;;;;7414861;19;20044;-91
2021/09/12 11:57:13;;;;;;;3.58;1.83;;;27.20;72.70;;;;;;7416842;19;20010;-90
2021/09/12 11:59:45;;;;;;;3.03;1.70;;;27.20;71.00;;;;;;7411313;19;20017;-92
2021/09/12 12:02:22;;;;;;;2.50;1.67;;;26.90;71.70;;;;;;7409005;19;20011;-92
2021/09/12 12:04:57;;;;;;;2.92;2.00;;;26.50;72.20;;;;;;7409977;19;20401;-92
2021/09/12 12:07:39;;;;;;;5.60;2.40;;;26.30;73.90;;;;;;7424382;19;20010;-90
2021/09/12 12:10:10;;;;;;;6.10;1.50;;;26.30;74.20;;;;;;7432538;19;19999;-91
2021/09/12 12:12:41;;;;;;;7.90;1.60;;;26.30;74.60;;;;;;7431008;19;20006;-89
2021/09/12 12:15:11;;;;;;;5.40;1.50;;;26.30;75.10;;;;;;7431487;19;20011;-90
2021/09/12 12:17:41;;;;;;;2.72;1.58;;;26.30;74.20;;;;;;7428481;19;20024;-91
2021/09/12 12:20:17;;;;;;;3.45;1.40;;;26.30;74.30;;;;;;7424199;19;20019;-92
2021/09/12 12:22:49;;;;;;;2.35;1.30;;;26.00;73.80;;;;;;7414609;19;20417;-88
2021/09/12 12:25:30;;;;;;;2.03;1.20;;;25.50;74.30;;;;;;7417647;19;20043;-90
2021/09/12 12:27:59;;;;;;;4.25;1.70;;;25.40;75.50;;;;;;7408929;19;20007;-88
2021/09/12 12:30:28;;;;;;;3.05;1.17;;;25.80;73.60;;;;;;7408625;19;20266;-89
2021/09/12 12:33:00;;;;;;;2.25;1.20;;;25.80;74.10;;;;;;7408890;19;20022;-89
2021/09/12 12:35:29;;;;;;;4.70;1.75;;;26.40;73.30;;;;;;7407750;19;20010;-89
2021/09/12 12:38:27;;;;;;;8.35;2.00;;;28.10;70.90;;;;;;7409603;19;20006;-91
2021/09/12 12:41:14;;;;;;;2.75;1.40;;;29.40;67.60;;;;;;7412567;19;20007;-93
2021/09/12 12:43:46;;;;;;;2.22;1.30;;;31.00;62.60;;;;;;7406097;19;20070;-93
2021/09/12 12:46:17;;;;;;;4.32;1.70;;;30.30;63.30;;;;;;7404970;19;20006;-91
2021/09/12 12:48:47;;;;;;;6.72;1.73;;;30.50;62.80;;;;;;7405921;19;20007;-93
2021/09/12 12:51:21;;;;;;;4.55;1.40;;;29.80;64.00;;;;;;7405821;19;20010;-91
2021/09/12 12:53:56;;;;;;;3.55;1.77;;;29.10;64.80;;;;;;7406384;19;20018;-94
2021/09/12 12:56:35;;;;;;;4.53;1.90;;;28.30;67.30;;;;;;7405330;19;20017;-92
2021/09/12 12:59:10;;;;;;;3.78;1.30;;;27.20;69.40;;;;;;7405103;19;20018;-95
2021/09/12 13:01:43;;;;;;;5.15;1.67;;;25.80;73.50;;;;;;7407758;19;20038;-92